AirNav   Everest Fuels
 
 1230 users online  

Y30 Pbeaaye Airport
Topinabee, Michigan, USA

GOING TO TOPINABEE?


FAA INFORMATION EFFECTIVE 08 OCTOBER 2020

Location

FAA Identifier: Y30
Lat/Long: 45-31-52.0390N 084-33-25.1340W
45-31.867317N 084-33.418900W
45.5311219,-84.5569817
(estimated)
Elevation: 690 ft. / 210.3 m (surveyed)
Variation: 06W (1985)
From city: 3 miles NE of TOPINABEE, MI
Time zone: UTC -4 (UTC -5 during Standard Time)
Zip code: 49721

Airport Operations

Airport use: Open to the public
Activation date: 10/1981
Control tower: no
ARTCC: MINNEAPOLIS CENTER
FSS: LANSING FLIGHT SERVICE STATION
NOTAMs facility: LAN (NOTAM-D service available)
Attendance: UNATNDD
Wind indicator: yes
Segmented circle: no

Airport Communications

CTAF: 122.9
WX AWOS-3 at SLH (8 nm N): 118.175 (231-627-4671)
WX ASOS at PLN (10 nm W): 119.025 (231-539-7700)
WX AWOS-3 at MGN (16 nm SW): 119.925 (231-347-5231)

Nearby radio navigation aids

VOR radial/distance  VOR name  Freq  Var
PLNr149/7.5PELLSTON VORTAC111.8006W
GLRr017/31.7GAYLORD VOR/DME109.2006W

Airport Services

Parking: tiedowns

Runway Information

Runway 1/19

Dimensions: 2470 x 90 ft. / 753 x 27 m
Surface: turf, in poor condition
RWY SFC ROUGH; UNEVEN TRRN.
Runway edge markings: 01/19 DSPLCD THLDS MKD WITH CONES.
RUNWAY 1  RUNWAY 19
Traffic pattern: leftleft
Displaced threshold: 450 ft.800 ft.
Obstructions: 60 ft. trees, 60 ft. left and right of centerline
APCH RATIO 0:1 AT DTHR OVR 60 FT TREES, 60 FT L/R; 20:1 BASED ON STRAIGHT OUT OVR 47 FT TREES, 950 FT DIST.
70 ft. trees, 55 ft. left and right of centerline
APCH RATIO 0:1 AT DTHR OVR 60 FT TREES, 55 FT L/R; 20:1 BASED ON STRAIGHT OUT OVR 92 FT TREES, 1850 FT DIST.

Airport Ownership and Management from official FAA records

Ownership: Privately-owned
Owner: PEABEAAYE INC
3299 TRYBAN RD
CHEBOYGAN, MI 49721-9787
Phone 231-290-6114
Manager: JERRY SIUDARA
3299 TRYBAN RD
CHEBOYGAN, MI 49721-9787
Phone 231-290-6114

Airport Operational Statistics

Aircraft based on the field: 13
Single engine airplanes: 13
    
Aircraft operations: avg 25/month *
67% local general aviation
33% transient general aviation
* for 12-month period ending 31 December 2019

Additional Remarks

TREES ALL QUADRANTS.
DEER & BIRDS INVOF ARPT.
WINTER OPNS SKIS ONLY. NO SNOW REMOVAL.
+60 FT WINDSOCK LCTD AT N END.
FOR CD CTC MINNEAPOLIS ARTCC AT 651-463-5588.

Instrument Procedures

There are no published instrument procedures at Y30.

Some nearby airports with instrument procedures:

KSLH - Cheboygan County Airport (8 nm N)
KPLN - Pellston Regional Airport of Emmet County (10 nm W)
6Y1 - Bois Blanc Island Airport (14 nm N)
KMGN - Harbor Springs Airport (16 nm SW)
KMCD - Mackinac Island Airport (20 nm N)
 
Loc | Ops | Rwys | IFR | FBO | Links
Com | Nav | Svcs | Stats | Notes
Area around Y30 (Pbeaaye Airport)
 
Road maps at: MapQuest Bing Google
 
Aerial photo
No photo
 
Sectional chart

 
Airport distance calculator
Flying to Pbeaaye Airport? Find the distance to fly.

From to Y30

Sunrise and sunset
Times for 22-Oct-2020
 Local
(UTC-4)
 Zulu
(UTC)
Morning civil twilight07:3611:36
Sunrise08:0612:06
Sunset18:3922:39
Evening civil twilight19:0923:09

Current date and time
Zulu (UTC)  22-Oct-2020 21:52:48
Local (UTC-4)  22-Oct-2020 17:52:48
 
METAR
KSLH 
7nm N 
222135Z AUTO 05010KT 3SM UP OVC010 06/05 A3016 RMK AO2 T00580045
KPLN 
10nm W 
222131Z AUTO 08010KT 4SM RA BR BKN006 BKN029 OVC046 06/05 A3013 RMK AO2 PRESFR P0006 T00610050
KMGN 
16nm W 
222135Z AUTO 06015G21KT 5SM -RA SCT008 BKN046 OVC095 05/04 A3012 RMK AO2 T00520046
KMCD 
19nm N 
222135Z AUTO 05018G22KT 10SM BKN009 OVC024 04/04 A3016 RMK AO2 P0001 T00400040
TAF
KPLN 
10nm W 
221739Z 2218/2318 09009KT P6SM VCSH OVC060 FM222000 07011G19KT 6SM -SHRA BR OVC029 FM222300 08012G20KT 5SM -SHRA BR OVC008 WS020/09035KT FM230500 05010G18KT 2SM SHRA BR VCTS OVC005CB WS020/14030KT FM230900 04006KT 3SM SHRA BR OVC005 FM231700 33009KT 6SM -SHRA BR OVC008
NOTAMs
Click for the latest NOTAMs
NOTAMs are issued by the DoD/FAA and will open in a separate window not controlled by AirNav.

 

 
 

Would you like to see your business listed on this page?

 If your business provides an interesting product or service to pilots, flight crews, aircraft, or users of the Pbeaaye Airport, you should consider listing it here.  To start the listing process, click on the button below
 
Add a business
 

Other Pages about Pbeaaye Airport

Page from the Michigan Airport Directory (PDF)
 
Update a link
 
Copyright © AirNav, LLC. All rights reserved. Privacy Policy  Contact